메인 페이지
METAR-TAF:

METAR-TAF

공항 :

Tyler Pounds Regional Airport

Tyler, 텍사스, 미국

위도: 32-21-31N, 경도: 095-24-14W, 고도: 165m

현재 날씨관측

예보는 16분 전, 14:17시(UTC)에 발표되었습니다.
남남동11kt
온도 26°C
습도 79%
기압 1019 hPa
시정: 16.1km
고도 1500ft 상공 구름 많음

METAR: KTYR 251417Z 16011KT 10SM BKN015 26/22 A3008 RMK AO2 T02610217

시각: 09:33 (14:33 UTC)

예보

예보는 31분 전, 14:02시(UTC)에 발표되었습니다.
예보 대상 시간: 25일 14시부터 26일 12시까지 (UTC)
남남동8kt, 순간 최대 풍속 17kt
시정: 10km
고도 1000ft 상공 구름 많음
고도 1400ft 상공 구름 많음
일시적
25일 14시부터 25일 17시까지 (UTC)
고도 900ft 상공 구름 보통
고도 1500ft 상공 구름 보통
고도 2500ft 상공 구름 많음
25일 1700시부터 (UTC)
11kt
시정: 10km
고도 4000ft 상공 구름 보통
26일 0100시부터 (UTC)
남남동8kt
시정: 10km
맑음
26일 1000시부터 (UTC)
6kt
시정: 10km
고도 1500ft 상공 구름 많음

TAF: KTYR 251402Z 2514/2612 16008G17KT P6SM BKN010 BKN014 TEMPO 2514/2517 SCT009 SCT015 BKN025 FM251700 18011KT P6SM SCT040 FM260100 16008KT P6SM SKC FM261000 18006KT P6SM BKN015

4,000개 이상의 공항 관측 자료 및 예보 (METAR 및 TAF 보고).

지도상에서 검색 가능한 기상관측소가 노란 점과 빨간 점으로 표시되어 있습니다.

기상관측소 명을 보려면 표시 위로 마우스를 이동하세요.

날씨 관측과 예보를 보려면 클릭하세요.

지도 변경 : 확대하려면 엑스 표시가 있는 녹색 버튼, 축소하려면 빼기 표시가 있는 녹색 버튼, 다음 페이지의 지도를 보려면 녹색 화살표를 클릭하세요.


METAR-TAF: